sensor_id;sensor_type;location;lat;lon;timestamp;temperature;humidity
15556;DHT22;7879;48.660;9.116;2023-12-07T00:02:03;0.50;99.90
15556;DHT22;7879;48.660;9.116;2023-12-07T00:04:31;0.50;99.90
15556;DHT22;7879;48.660;9.116;2023-12-07T00:06:58;0.50;99.90
15556;DHT22;7879;48.660;9.116;2023-12-07T00:09:25;0.50;99.90
15556;DHT22;7879;48.660;9.116;2023-12-07T00:11:52;0.50;99.90
15556;DHT22;7879;48.660;9.116;2023-12-07T00:14:19;0.50;99.90
15556;DHT22;7879;48.660;9.116;2023-12-07T00:16:47;0.50;99.90
15556;DHT22;7879;48.660;9.116;2023-12-07T00:19:19;0.40;99.90
15556;DHT22;7879;48.660;9.116;2023-12-07T00:21:46;0.50;99.90
15556;DHT22;7879;48.660;9.116;2023-12-07T00:24:16;0.50;99.90
15556;DHT22;7879;48.660;9.116;2023-12-07T00:26:46;0.50;99.90
15556;DHT22;7879;48.660;9.116;2023-12-07T00:29:13;0.50;99.90
15556;DHT22;7879;48.660;9.116;2023-12-07T00:31:45;0.50;99.90
15556;DHT22;7879;48.660;9.116;2023-12-07T00:34:15;0.60;99.90
15556;DHT22;7879;48.660;9.116;2023-12-07T00:36:49;0.50;99.90
15556;DHT22;7879;48.660;9.116;2023-12-07T00:39:22;0.50;99.90
15556;DHT22;7879;48.660;9.116;2023-12-07T00:41:51;0.50;99.90
15556;DHT22;7879;48.660;9.116;2023-12-07T00:44:21;0.50;99.90
15556;DHT22;7879;48.660;9.116;2023-12-07T00:46:50;0.50;99.90
15556;DHT22;7879;48.660;9.116;2023-12-07T00:49:28;0.40;99.90
15556;DHT22;7879;48.660;9.116;2023-12-07T00:51:55;0.40;99.90
15556;DHT22;7879;48.660;9.116;2023-12-07T00:54:25;0.40;99.90
15556;DHT22;7879;48.660;9.116;2023-12-07T00:56:54;0.50;99.90
15556;DHT22;7879;48.660;9.116;2023-12-07T00:59:21;0.50;99.90
15556;DHT22;7879;48.660;9.116;2023-12-07T01:01:51;0.40;99.90
15556;DHT22;7879;48.660;9.116;2023-12-07T01:04:28;0.40;99.90
15556;DHT22;7879;48.660;9.116;2023-12-07T01:07:01;0.50;99.90
15556;DHT22;7879;48.660;9.116;2023-12-07T01:09:31;0.50;99.90
15556;DHT22;7879;48.660;9.116;2023-12-07T01:12:00;0.40;99.90
15556;DHT22;7879;48.660;9.116;2023-12-07T01:14:26;0.40;99.90
15556;DHT22;7879;48.660;9.116;2023-12-07T01:16:53;0.40;99.90
15556;DHT22;7879;48.660;9.116;2023-12-07T01:19:21;0.40;99.90
15556;DHT22;7879;48.660;9.116;2023-12-07T01:21:51;0.40;99.90
15556;DHT22;7879;48.660;9.116;2023-12-07T01:24:18;0.40;99.90
15556;DHT22;7879;48.660;9.116;2023-12-07T01:26:45;0.50;99.90
15556;DHT22;7879;48.660;9.116;2023-12-07T01:29:11;0.40;99.90
15556;DHT22;7879;48.660;9.116;2023-12-07T01:31:40;0.30;99.90
15556;DHT22;7879;48.660;9.116;2023-12-07T01:34:07;0.30;99.90
15556;DHT22;7879;48.660;9.116;2023-12-07T01:36:37;0.40;99.90
15556;DHT22;7879;48.660;9.116;2023-12-07T01:39:05;0.30;99.90
15556;DHT22;7879;48.660;9.116;2023-12-07T01:41:35;0.30;99.90
15556;DHT22;7879;48.660;9.116;2023-12-07T01:44:02;0.30;99.90
15556;DHT22;7879;48.660;9.116;2023-12-07T01:46:31;0.30;99.90
15556;DHT22;7879;48.660;9.116;2023-12-07T01:48:58;0.30;99.90
15556;DHT22;7879;48.660;9.116;2023-12-07T01:51:29;0.30;99.90
15556;DHT22;7879;48.660;9.116;2023-12-07T01:53:56;0.30;99.90
15556;DHT22;7879;48.660;9.116;2023-12-07T01:56:24;0.30;99.90
15556;DHT22;7879;48.660;9.116;2023-12-07T01:58:52;0.40;99.90
15556;DHT22;7879;48.660;9.116;2023-12-07T02:01:19;0.30;99.90
15556;DHT22;7879;48.660;9.116;2023-12-07T02:03:46;0.30;99.90
15556;DHT22;7879;48.660;9.116;2023-12-07T02:06:15;0.30;99.90
15556;DHT22;7879;48.660;9.116;2023-12-07T02:08:46;0.30;99.90
15556;DHT22;7879;48.660;9.116;2023-12-07T02:11:15;0.30;99.90
15556;DHT22;7879;48.660;9.116;2023-12-07T02:13:45;0.30;99.90
15556;DHT22;7879;48.660;9.116;2023-12-07T02:16:23;0.30;99.90
15556;DHT22;7879;48.660;9.116;2023-12-07T02:19:14;0.30;99.90
15556;DHT22;7879;48.660;9.116;2023-12-07T02:22:17;0.20;99.90
15556;DHT22;7879;48.660;9.116;2023-12-07T02:27:43;0.20;99.90
15556;DHT22;7879;48.660;9.116;2023-12-07T02:30:12;0.20;99.90
15556;DHT22;7879;48.660;9.116;2023-12-07T02:32:44;0.10;99.90
15556;DHT22;7879;48.660;9.116;2023-12-07T02:35:14;0.20;99.90
15556;DHT22;7879;48.660;9.116;2023-12-07T02:37:46;0.10;99.90
15556;DHT22;7879;48.660;9.116;2023-12-07T02:40:27;0.00;99.90
15556;DHT22;7879;48.660;9.116;2023-12-07T02:42:56;0.00;99.90
15556;DHT22;7879;48.660;9.116;2023-12-07T02:45:23;0.00;99.90
15556;DHT22;7879;48.660;9.116;2023-12-07T02:47:57;-0.10;99.90
15556;DHT22;7879;48.660;9.116;2023-12-07T02:50:24;-0.10;99.90
15556;DHT22;7879;48.660;9.116;2023-12-07T02:52:51;-0.10;99.90
15556;DHT22;7879;48.660;9.116;2023-12-07T02:55:21;-0.10;99.90
15556;DHT22;7879;48.660;9.116;2023-12-07T02:57:50;-0.10;99.90
15556;DHT22;7879;48.660;9.116;2023-12-07T03:00:18;-0.20;99.90
15556;DHT22;7879;48.660;9.116;2023-12-07T03:02:45;-0.10;99.90
15556;DHT22;7879;48.660;9.116;2023-12-07T03:05:14;-0.20;99.90
15556;DHT22;7879;48.660;9.116;2023-12-07T03:07:41;-0.10;99.90
15556;DHT22;7879;48.660;9.116;2023-12-07T03:10:08;-0.20;99.90
15556;DHT22;7879;48.660;9.116;2023-12-07T03:12:37;-0.20;99.90
15556;DHT22;7879;48.660;9.116;2023-12-07T03:15:05;-0.20;99.90
15556;DHT22;7879;48.660;9.116;2023-12-07T03:17:32;-0.20;99.90
15556;DHT22;7879;48.660;9.116;2023-12-07T03:20:00;-0.20;99.90
15556;DHT22;7879;48.660;9.116;2023-12-07T03:22:30;-0.30;99.90
15556;DHT22;7879;48.660;9.116;2023-12-07T03:24:57;-0.30;99.90
15556;DHT22;7879;48.660;9.116;2023-12-07T03:27:24;-0.30;99.90
15556;DHT22;7879;48.660;9.116;2023-12-07T03:29:51;-0.30;99.90
15556;DHT22;7879;48.660;9.116;2023-12-07T03:32:18;-0.20;99.90
15556;DHT22;7879;48.660;9.116;2023-12-07T03:34:45;-0.30;99.90
15556;DHT22;7879;48.660;9.116;2023-12-07T03:37:12;-0.30;99.90
15556;DHT22;7879;48.660;9.116;2023-12-07T03:39:42;-0.30;99.90
15556;DHT22;7879;48.660;9.116;2023-12-07T03:42:09;-0.40;99.90
15556;DHT22;7879;48.660;9.116;2023-12-07T03:44:56;-0.30;99.90
15556;DHT22;7879;48.660;9.116;2023-12-07T03:47:23;-0.30;99.90
15556;DHT22;7879;48.660;9.116;2023-12-07T03:49:50;-0.30;99.90
15556;DHT22;7879;48.660;9.116;2023-12-07T03:52:17;-0.30;99.90
15556;DHT22;7879;48.660;9.116;2023-12-07T03:54:43;-0.30;99.90
15556;DHT22;7879;48.660;9.116;2023-12-07T03:57:10;-0.30;99.90
15556;DHT22;7879;48.660;9.116;2023-12-07T03:59:37;-0.40;99.90
15556;DHT22;7879;48.660;9.116;2023-12-07T04:02:04;-0.30;99.90
15556;DHT22;7879;48.660;9.116;2023-12-07T04:04:31;-0.30;99.90
15556;DHT22;7879;48.660;9.116;2023-12-07T04:06:58;-0.30;99.90
15556;DHT22;7879;48.660;9.116;2023-12-07T04:09:25;-0.30;99.90
15556;DHT22;7879;48.660;9.116;2023-12-07T04:11:52;-0.30;99.90
15556;DHT22;7879;48.660;9.116;2023-12-07T04:14:19;-0.30;99.90
15556;DHT22;7879;48.660;9.116;2023-12-07T04:16:45;-0.30;99.90
15556;DHT22;7879;48.660;9.116;2023-12-07T04:19:12;-0.30;99.90
15556;DHT22;7879;48.660;9.116;2023-12-07T04:21:41;-0.30;99.90
15556;DHT22;7879;48.660;9.116;2023-12-07T04:24:08;-0.40;99.90
15556;DHT22;7879;48.660;9.116;2023-12-07T04:26:35;-0.40;99.90
15556;DHT22;7879;48.660;9.116;2023-12-07T04:29:02;-0.50;99.90
15556;DHT22;7879;48.660;9.116;2023-12-07T04:31:31;-0.50;99.90
15556;DHT22;7879;48.660;9.116;2023-12-07T04:33:58;-0.50;99.90
15556;DHT22;7879;48.660;9.116;2023-12-07T04:36:29;-0.50;99.90
15556;DHT22;7879;48.660;9.116;2023-12-07T04:38:55;-0.50;99.90
15556;DHT22;7879;48.660;9.116;2023-12-07T04:41:25;-0.60;99.90
15556;DHT22;7879;48.660;9.116;2023-12-07T04:43:52;-0.60;99.90
15556;DHT22;7879;48.660;9.116;2023-12-07T04:46:25;-0.70;99.90
15556;DHT22;7879;48.660;9.116;2023-12-07T04:48:52;-0.60;99.90
15556;DHT22;7879;48.660;9.116;2023-12-07T04:51:20;-0.60;99.90
15556;DHT22;7879;48.660;9.116;2023-12-07T04:53:47;-0.70;99.90
15556;DHT22;7879;48.660;9.116;2023-12-07T04:56:14;-0.70;99.90
15556;DHT22;7879;48.660;9.116;2023-12-07T04:58:41;-0.80;99.90
15556;DHT22;7879;48.660;9.116;2023-12-07T05:01:08;-0.80;99.90
15556;DHT22;7879;48.660;9.116;2023-12-07T05:03:39;-0.80;99.90
15556;DHT22;7879;48.660;9.116;2023-12-07T05:06:06;-0.90;99.90
15556;DHT22;7879;48.660;9.116;2023-12-07T05:08:34;-0.90;99.90
15556;DHT22;7879;48.660;9.116;2023-12-07T05:11:01;-0.90;99.90
15556;DHT22;7879;48.660;9.116;2023-12-07T05:13:28;-0.90;99.90
15556;DHT22;7879;48.660;9.116;2023-12-07T05:15:55;-1.00;99.90
15556;DHT22;7879;48.660;9.116;2023-12-07T05:18:21;-1.00;99.90
15556;DHT22;7879;48.660;9.116;2023-12-07T05:20:48;-1.00;99.90
15556;DHT22;7879;48.660;9.116;2023-12-07T05:23:15;-1.00;99.90
15556;DHT22;7879;48.660;9.116;2023-12-07T05:25:43;-1.00;99.90
15556;DHT22;7879;48.660;9.116;2023-12-07T05:28:10;-1.10;99.90
15556;DHT22;7879;48.660;9.116;2023-12-07T05:30:39;-0.90;99.90
15556;DHT22;7879;48.660;9.116;2023-12-07T05:33:08;-1.10;99.90
15556;DHT22;7879;48.660;9.116;2023-12-07T05:35:35;-1.10;99.90
15556;DHT22;7879;48.660;9.116;2023-12-07T05:38:05;-1.20;99.90
15556;DHT22;7879;48.660;9.116;2023-12-07T05:40:32;-1.20;99.90
15556;DHT22;7879;48.660;9.116;2023-12-07T05:43:00;-1.20;99.90
15556;DHT22;7879;48.660;9.116;2023-12-07T05:45:27;-1.30;99.90
15556;DHT22;7879;48.660;9.116;2023-12-07T05:47:54;-1.30;99.90
15556;DHT22;7879;48.660;9.116;2023-12-07T05:50:21;-1.30;99.90
15556;DHT22;7879;48.660;9.116;2023-12-07T05:52:48;-1.30;99.90
15556;DHT22;7879;48.660;9.116;2023-12-07T05:55:15;-1.30;99.90
15556;DHT22;7879;48.660;9.116;2023-12-07T05:57:45;-1.30;99.90
15556;DHT22;7879;48.660;9.116;2023-12-07T06:00:13;-1.30;99.90
15556;DHT22;7879;48.660;9.116;2023-12-07T06:02:40;-1.40;99.90
15556;DHT22;7879;48.660;9.116;2023-12-07T06:05:07;-1.40;99.90
15556;DHT22;7879;48.660;9.116;2023-12-07T06:07:34;-1.40;99.90
15556;DHT22;7879;48.660;9.116;2023-12-07T06:10:02;-1.30;99.90
15556;DHT22;7879;48.660;9.116;2023-12-07T06:12:29;-1.30;99.90
15556;DHT22;7879;48.660;9.116;2023-12-07T06:14:57;-1.30;99.90
15556;DHT22;7879;48.660;9.116;2023-12-07T06:17:24;-1.20;99.90
15556;DHT22;7879;48.660;9.116;2023-12-07T06:19:54;-1.30;99.90
15556;DHT22;7879;48.660;9.116;2023-12-07T06:22:21;-1.30;99.90
15556;DHT22;7879;48.660;9.116;2023-12-07T06:24:50;-1.30;99.90
15556;DHT22;7879;48.660;9.116;2023-12-07T06:27:20;-1.30;99.90
15556;DHT22;7879;48.660;9.116;2023-12-07T06:29:47;-1.30;99.90
15556;DHT22;7879;48.660;9.116;2023-12-07T06:32:15;-1.40;99.90
15556;DHT22;7879;48.660;9.116;2023-12-07T06:34:43;-1.40;99.90
15556;DHT22;7879;48.660;9.116;2023-12-07T06:37:13;-1.50;99.90
15556;DHT22;7879;48.660;9.116;2023-12-07T06:39:40;-1.50;99.90
15556;DHT22;7879;48.660;9.116;2023-12-07T06:42:07;-1.40;99.90
15556;DHT22;7879;48.660;9.116;2023-12-07T06:44:35;-1.40;99.90
15556;DHT22;7879;48.660;9.116;2023-12-07T06:47:02;-1.50;99.90
15556;DHT22;7879;48.660;9.116;2023-12-07T06:49:31;-1.50;99.90
15556;DHT22;7879;48.660;9.116;2023-12-07T06:52:15;-1.40;99.90
15556;DHT22;7879;48.660;9.116;2023-12-07T06:54:46;-1.40;99.90
15556;DHT22;7879;48.660;9.116;2023-12-07T06:57:14;-1.50;99.90
15556;DHT22;7879;48.660;9.116;2023-12-07T06:59:40;-1.40;99.90
15556;DHT22;7879;48.660;9.116;2023-12-07T07:02:07;-1.50;99.90
15556;DHT22;7879;48.660;9.116;2023-12-07T07:04:35;-1.60;99.90
15556;DHT22;7879;48.660;9.116;2023-12-07T07:07:04;-1.50;99.90
15556;DHT22;7879;48.660;9.116;2023-12-07T07:09:31;-1.60;99.90
15556;DHT22;7879;48.660;9.116;2023-12-07T07:12:00;-1.50;99.90
15556;DHT22;7879;48.660;9.116;2023-12-07T07:14:27;-1.50;99.90
15556;DHT22;7879;48.660;9.116;2023-12-07T07:16:54;-1.50;99.90
15556;DHT22;7879;48.660;9.116;2023-12-07T07:19:21;-1.60;99.90
15556;DHT22;7879;48.660;9.116;2023-12-07T07:21:48;-1.60;99.90
15556;DHT22;7879;48.660;9.116;2023-12-07T07:24:15;-1.50;99.90
15556;DHT22;7879;48.660;9.116;2023-12-07T07:26:42;-1.50;99.90
15556;DHT22;7879;48.660;9.116;2023-12-07T07:29:09;-1.50;99.90
15556;DHT22;7879;48.660;9.116;2023-12-07T07:31:36;-1.60;99.90
15556;DHT22;7879;48.660;9.116;2023-12-07T07:34:05;-1.60;99.90
15556;DHT22;7879;48.660;9.116;2023-12-07T07:36:32;-1.60;99.90
15556;DHT22;7879;48.660;9.116;2023-12-07T07:38:59;-1.70;99.90
15556;DHT22;7879;48.660;9.116;2023-12-07T07:41:26;-1.80;99.90
15556;DHT22;7879;48.660;9.116;2023-12-07T07:43:53;-1.80;99.90
15556;DHT22;7879;48.660;9.116;2023-12-07T07:46:25;-1.70;99.90
15556;DHT22;7879;48.660;9.116;2023-12-07T07:48:52;-1.70;99.90
15556;DHT22;7879;48.660;9.116;2023-12-07T07:51:22;-1.60;99.90
15556;DHT22;7879;48.660;9.116;2023-12-07T07:53:49;-1.60;99.90
15556;DHT22;7879;48.660;9.116;2023-12-07T07:56:16;-1.60;99.90
15556;DHT22;7879;48.660;9.116;2023-12-07T07:58:43;-1.60;99.90
15556;DHT22;7879;48.660;9.116;2023-12-07T08:01:10;-1.60;99.90
15556;DHT22;7879;48.660;9.116;2023-12-07T08:03:41;-1.60;99.90
15556;DHT22;7879;48.660;9.116;2023-12-07T08:06:09;-1.60;99.90
15556;DHT22;7879;48.660;9.116;2023-12-07T08:08:36;-1.40;99.90
15556;DHT22;7879;48.660;9.116;2023-12-07T08:11:03;-1.50;99.90
15556;DHT22;7879;48.660;9.116;2023-12-07T08:13:32;-1.50;99.90
15556;DHT22;7879;48.660;9.116;2023-12-07T08:15:59;-1.30;99.90
15556;DHT22;7879;48.660;9.116;2023-12-07T08:18:26;-1.50;99.90
15556;DHT22;7879;48.660;9.116;2023-12-07T08:20:53;-1.50;99.90
15556;DHT22;7879;48.660;9.116;2023-12-07T08:23:20;-1.50;99.90
15556;DHT22;7879;48.660;9.116;2023-12-07T08:25:47;-1.50;99.90
15556;DHT22;7879;48.660;9.116;2023-12-07T08:28:15;-1.40;99.90
15556;DHT22;7879;48.660;9.116;2023-12-07T08:30:42;-1.40;99.90
15556;DHT22;7879;48.660;9.116;2023-12-07T08:33:09;-1.30;99.90
15556;DHT22;7879;48.660;9.116;2023-12-07T08:35:36;-1.20;99.90
15556;DHT22;7879;48.660;9.116;2023-12-07T08:38:03;-1.10;99.90
15556;DHT22;7879;48.660;9.116;2023-12-07T08:40:31;-1.00;99.90
15556;DHT22;7879;48.660;9.116;2023-12-07T08:42:58;-0.80;99.90
15556;DHT22;7879;48.660;9.116;2023-12-07T08:45:27;-0.70;99.90
15556;DHT22;7879;48.660;9.116;2023-12-07T08:47:54;-0.50;99.90
15556;DHT22;7879;48.660;9.116;2023-12-07T08:50:24;-0.40;99.90
15556;DHT22;7879;48.660;9.116;2023-12-07T08:52:51;-0.20;99.90
15556;DHT22;7879;48.660;9.116;2023-12-07T08:55:27;-0.20;99.90
15556;DHT22;7879;48.660;9.116;2023-12-07T08:57:55;-0.10;99.90
15556;DHT22;7879;48.660;9.116;2023-12-07T09:00:23;0.10;99.90
15556;DHT22;7879;48.660;9.116;2023-12-07T09:02:52;0.20;99.90
15556;DHT22;7879;48.660;9.116;2023-12-07T09:05:19;0.30;99.90
15556;DHT22;7879;48.660;9.116;2023-12-07T09:07:46;0.50;99.90
15556;DHT22;7879;48.660;9.116;2023-12-07T09:10:13;0.70;99.90
15556;DHT22;7879;48.660;9.116;2023-12-07T09:12:40;0.90;99.90
15556;DHT22;7879;48.660;9.116;2023-12-07T09:15:08;1.00;99.90
15556;DHT22;7879;48.660;9.116;2023-12-07T09:17:39;1.10;99.90
15556;DHT22;7879;48.660;9.116;2023-12-07T09:20:10;1.20;99.90
15556;DHT22;7879;48.660;9.116;2023-12-07T09:22:45;1.30;99.90
15556;DHT22;7879;48.660;9.116;2023-12-07T09:25:16;1.40;99.90
15556;DHT22;7879;48.660;9.116;2023-12-07T09:27:46;1.50;99.90
15556;DHT22;7879;48.660;9.116;2023-12-07T09:30:14;1.50;99.90
15556;DHT22;7879;48.660;9.116;2023-12-07T09:32:43;1.50;99.90
15556;DHT22;7879;48.660;9.116;2023-12-07T09:35:15;1.60;99.90
15556;DHT22;7879;48.660;9.116;2023-12-07T09:37:47;1.70;99.90
15556;DHT22;7879;48.660;9.116;2023-12-07T09:40:16;1.90;99.90
15556;DHT22;7879;48.660;9.116;2023-12-07T09:42:51;2.10;99.90
15556;DHT22;7879;48.660;9.116;2023-12-07T09:45:21;2.20;99.90
15556;DHT22;7879;48.660;9.116;2023-12-07T09:47:52;2.10;99.90
15556;DHT22;7879;48.660;9.116;2023-12-07T09:50:22;2.00;99.90
15556;DHT22;7879;48.660;9.116;2023-12-07T09:52:54;2.10;99.90
15556;DHT22;7879;48.660;9.116;2023-12-07T09:55:34;2.20;99.90
15556;DHT22;7879;48.660;9.116;2023-12-07T09:58:04;2.40;99.90
15556;DHT22;7879;48.660;9.116;2023-12-07T10:00:33;2.50;99.90
15556;DHT22;7879;48.660;9.116;2023-12-07T10:03:01;2.50;99.90
15556;DHT22;7879;48.660;9.116;2023-12-07T10:05:28;2.60;99.90
15556;DHT22;7879;48.660;9.116;2023-12-07T10:07:55;2.70;99.90
15556;DHT22;7879;48.660;9.116;2023-12-07T10:10:22;2.70;99.90
15556;DHT22;7879;48.660;9.116;2023-12-07T10:12:56;2.70;99.90
15556;DHT22;7879;48.660;9.116;2023-12-07T10:15:26;2.70;99.90
15556;DHT22;7879;48.660;9.116;2023-12-07T10:17:58;2.70;99.90
15556;DHT22;7879;48.660;9.116;2023-12-07T10:20:27;2.80;99.90
15556;DHT22;7879;48.660;9.116;2023-12-07T10:23:02;3.00;99.90
15556;DHT22;7879;48.660;9.116;2023-12-07T10:25:39;3.00;99.90
15556;DHT22;7879;48.660;9.116;2023-12-07T10:28:09;3.20;99.90
15556;DHT22;7879;48.660;9.116;2023-12-07T10:30:40;3.30;99.90
15556;DHT22;7879;48.660;9.116;2023-12-07T10:33:10;3.40;99.90
15556;DHT22;7879;48.660;9.116;2023-12-07T10:35:39;3.40;99.90
15556;DHT22;7879;48.660;9.116;2023-12-07T10:38:08;3.50;99.90
15556;DHT22;7879;48.660;9.116;2023-12-07T10:40:35;3.60;99.90
15556;DHT22;7879;48.660;9.116;2023-12-07T10:43:05;3.70;99.90
15556;DHT22;7879;48.660;9.116;2023-12-07T10:45:36;3.80;99.90
15556;DHT22;7879;48.660;9.116;2023-12-07T10:48:09;3.90;99.90
15556;DHT22;7879;48.660;9.116;2023-12-07T10:50:40;4.00;99.90
15556;DHT22;7879;48.660;9.116;2023-12-07T10:55:55;4.10;99.90
15556;DHT22;7879;48.660;9.116;2023-12-07T10:58:23;4.10;99.90
15556;DHT22;7879;48.660;9.116;2023-12-07T11:00:55;4.10;99.90
15556;DHT22;7879;48.660;9.116;2023-12-07T11:03:24;4.00;99.90
15556;DHT22;7879;48.660;9.116;2023-12-07T11:05:51;4.10;99.90
15556;DHT22;7879;48.660;9.116;2023-12-07T11:13:24;4.30;99.90
15556;DHT22;7879;48.660;9.116;2023-12-07T11:15:54;4.30;99.90
15556;DHT22;7879;48.660;9.116;2023-12-07T11:18:24;4.30;99.90
15556;DHT22;7879;48.660;9.116;2023-12-07T11:20:55;4.30;99.90
15556;DHT22;7879;48.660;9.116;2023-12-07T11:23:22;4.30;99.90
15556;DHT22;7879;48.660;9.116;2023-12-07T11:25:52;4.30;99.90
15556;DHT22;7879;48.660;9.116;2023-12-07T11:28:37;4.40;99.90
15556;DHT22;7879;48.660;9.116;2023-12-07T11:31:08;4.40;99.90
15556;DHT22;7879;48.660;9.116;2023-12-07T11:33:38;4.40;99.90
15556;DHT22;7879;48.660;9.116;2023-12-07T11:36:10;4.40;99.90
15556;DHT22;7879;48.660;9.116;2023-12-07T11:41:51;4.40;99.90
15556;DHT22;7879;48.660;9.116;2023-12-07T11:44:36;4.30;99.90
15556;DHT22;7879;48.660;9.116;2023-12-07T11:47:04;4.30;99.90
15556;DHT22;7879;48.660;9.116;2023-12-07T11:49:32;4.30;99.90
15556;DHT22;7879;48.660;9.116;2023-12-07T11:52:16;4.30;99.90
15556;DHT22;7879;48.660;9.116;2023-12-07T11:54:48;4.30;99.90
15556;DHT22;7879;48.660;9.116;2023-12-07T11:57:17;4.30;99.90
15556;DHT22;7879;48.660;9.116;2023-12-07T11:59:44;4.30;99.90
15556;DHT22;7879;48.660;9.116;2023-12-07T12:02:12;4.30;99.90
15556;DHT22;7879;48.660;9.116;2023-12-07T12:04:40;4.20;99.90
15556;DHT22;7879;48.660;9.116;2023-12-07T12:07:08;4.20;99.90
15556;DHT22;7879;48.660;9.116;2023-12-07T12:09:36;4.10;99.90
15556;DHT22;7879;48.660;9.116;2023-12-07T12:12:04;4.10;99.90
15556;DHT22;7879;48.660;9.116;2023-12-07T12:14:31;4.00;99.90
15556;DHT22;7879;48.660;9.116;2023-12-07T12:17:00;4.00;99.90
15556;DHT22;7879;48.660;9.116;2023-12-07T12:19:30;4.00;99.90
15556;DHT22;7879;48.660;9.116;2023-12-07T12:22:04;4.00;99.90
15556;DHT22;7879;48.660;9.116;2023-12-07T12:24:37;3.90;99.90
15556;DHT22;7879;48.660;9.116;2023-12-07T12:27:07;3.90;99.90
15556;DHT22;7879;48.660;9.116;2023-12-07T12:29:34;4.00;99.90
15556;DHT22;7879;48.660;9.116;2023-12-07T12:32:02;4.00;99.90
15556;DHT22;7879;48.660;9.116;2023-12-07T12:34:34;4.00;99.90
15556;DHT22;7879;48.660;9.116;2023-12-07T12:37:02;4.00;99.90
15556;DHT22;7879;48.660;9.116;2023-12-07T12:39:36;4.10;99.90
15556;DHT22;7879;48.660;9.116;2023-12-07T12:42:05;4.00;99.90
15556;DHT22;7879;48.660;9.116;2023-12-07T12:44:32;4.00;99.90
15556;DHT22;7879;48.660;9.116;2023-12-07T12:47:07;4.00;99.90
15556;DHT22;7879;48.660;9.116;2023-12-07T12:49:42;4.00;99.90
15556;DHT22;7879;48.660;9.116;2023-12-07T12:52:15;4.00;99.90
15556;DHT22;7879;48.660;9.116;2023-12-07T12:54:45;4.00;99.90
15556;DHT22;7879;48.660;9.116;2023-12-07T12:57:16;4.10;99.90
15556;DHT22;7879;48.660;9.116;2023-12-07T12:59:47;4.10;99.90
15556;DHT22;7879;48.660;9.116;2023-12-07T13:02:15;4.10;99.90
15556;DHT22;7879;48.660;9.116;2023-12-07T13:04:45;4.10;99.90
15556;DHT22;7879;48.660;9.116;2023-12-07T13:07:14;4.10;99.90
15556;DHT22;7879;48.660;9.116;2023-12-07T13:09:41;4.10;99.90
15556;DHT22;7879;48.660;9.116;2023-12-07T13:12:10;4.20;99.90
15556;DHT22;7879;48.660;9.116;2023-12-07T13:14:38;4.10;99.90
15556;DHT22;7879;48.660;9.116;2023-12-07T13:17:14;4.10;99.90
15556;DHT22;7879;48.660;9.116;2023-12-07T13:19:44;4.10;99.90
15556;DHT22;7879;48.660;9.116;2023-12-07T13:22:12;4.10;99.90
15556;DHT22;7879;48.660;9.116;2023-12-07T13:24:39;4.10;99.90
15556;DHT22;7879;48.660;9.116;2023-12-07T13:27:06;4.10;99.90
15556;DHT22;7879;48.660;9.116;2023-12-07T13:29:33;4.10;99.90
15556;DHT22;7879;48.660;9.116;2023-12-07T13:32:04;4.10;99.90
15556;DHT22;7879;48.660;9.116;2023-12-07T13:34:31;4.10;99.90
15556;DHT22;7879;48.660;9.116;2023-12-07T13:36:58;4.10;99.90
15556;DHT22;7879;48.660;9.116;2023-12-07T13:39:25;4.10;99.90
15556;DHT22;7879;48.660;9.116;2023-12-07T13:41:58;4.10;99.90
15556;DHT22;7879;48.660;9.116;2023-12-07T13:44:28;4.10;99.90
15556;DHT22;7879;48.660;9.116;2023-12-07T13:46:58;4.00;99.90
15556;DHT22;7879;48.660;9.116;2023-12-07T13:49:29;4.00;99.90
15556;DHT22;7879;48.660;9.116;2023-12-07T13:52:04;4.00;99.90
15556;DHT22;7879;48.660;9.116;2023-12-07T13:54:35;4.00;99.90
15556;DHT22;7879;48.660;9.116;2023-12-07T13:57:05;4.10;99.90
15556;DHT22;7879;48.660;9.116;2023-12-07T13:59:35;4.10;99.90
15556;DHT22;7879;48.660;9.116;2023-12-07T14:02:04;4.10;99.90
15556;DHT22;7879;48.660;9.116;2023-12-07T14:04:32;4.10;99.90
15556;DHT22;7879;48.660;9.116;2023-12-07T14:07:11;4.10;99.90
15556;DHT22;7879;48.660;9.116;2023-12-07T14:09:40;4.20;99.90
15556;DHT22;7879;48.660;9.116;2023-12-07T14:12:22;4.10;99.90
15556;DHT22;7879;48.660;9.116;2023-12-07T14:14:50;4.10;99.90
15556;DHT22;7879;48.660;9.116;2023-12-07T14:17:17;4.10;99.90
15556;DHT22;7879;48.660;9.116;2023-12-07T14:19:53;4.10;99.90
15556;DHT22;7879;48.660;9.116;2023-12-07T14:22:35;4.00;99.90
15556;DHT22;7879;48.660;9.116;2023-12-07T14:25:06;3.90;99.90
15556;DHT22;7879;48.660;9.116;2023-12-07T14:27:36;3.90;99.90
15556;DHT22;7879;48.660;9.116;2023-12-07T14:30:05;3.90;99.90
15556;DHT22;7879;48.660;9.116;2023-12-07T14:32:36;3.80;99.90
15556;DHT22;7879;48.660;9.116;2023-12-07T14:35:05;3.80;99.90
15556;DHT22;7879;48.660;9.116;2023-12-07T14:37:35;3.70;99.90
15556;DHT22;7879;48.660;9.116;2023-12-07T14:40:02;3.70;99.90
15556;DHT22;7879;48.660;9.116;2023-12-07T14:42:34;3.70;99.90
15556;DHT22;7879;48.660;9.116;2023-12-07T14:45:01;3.60;99.90
15556;DHT22;7879;48.660;9.116;2023-12-07T14:47:28;3.60;99.90
15556;DHT22;7879;48.660;9.116;2023-12-07T14:49:55;3.50;99.90
15556;DHT22;7879;48.660;9.116;2023-12-07T14:52:22;3.50;99.90
15556;DHT22;7879;48.660;9.116;2023-12-07T14:54:51;3.40;99.90
15556;DHT22;7879;48.660;9.116;2023-12-07T14:57:20;3.40;99.90
15556;DHT22;7879;48.660;9.116;2023-12-07T14:59:47;3.30;99.90
15556;DHT22;7879;48.660;9.116;2023-12-07T15:02:15;3.30;99.90
15556;DHT22;7879;48.660;9.116;2023-12-07T15:04:42;3.30;99.90
15556;DHT22;7879;48.660;9.116;2023-12-07T15:07:14;3.20;99.90
15556;DHT22;7879;48.660;9.116;2023-12-07T15:09:43;3.20;99.90
15556;DHT22;7879;48.660;9.116;2023-12-07T15:12:16;3.20;99.90
15556;DHT22;7879;48.660;9.116;2023-12-07T15:14:46;3.10;99.90
15556;DHT22;7879;48.660;9.116;2023-12-07T15:17:13;3.10;99.90
15556;DHT22;7879;48.660;9.116;2023-12-07T15:19:40;3.00;99.90
15556;DHT22;7879;48.660;9.116;2023-12-07T15:22:11;3.00;99.90
15556;DHT22;7879;48.660;9.116;2023-12-07T15:24:38;3.00;99.90
15556;DHT22;7879;48.660;9.116;2023-12-07T15:27:07;3.00;99.90
15556;DHT22;7879;48.660;9.116;2023-12-07T15:29:34;2.90;99.90
15556;DHT22;7879;48.660;9.116;2023-12-07T15:32:03;2.90;99.90
15556;DHT22;7879;48.660;9.116;2023-12-07T15:34:34;2.80;99.90
15556;DHT22;7879;48.660;9.116;2023-12-07T15:37:07;2.80;99.90
15556;DHT22;7879;48.660;9.116;2023-12-07T15:39:38;2.70;99.90
15556;DHT22;7879;48.660;9.116;2023-12-07T15:42:06;2.70;99.90
15556;DHT22;7879;48.660;9.116;2023-12-07T15:44:34;2.70;99.90
15556;DHT22;7879;48.660;9.116;2023-12-07T15:47:01;2.70;99.90
15556;DHT22;7879;48.660;9.116;2023-12-07T15:49:27;2.70;99.90
15556;DHT22;7879;48.660;9.116;2023-12-07T15:51:55;2.60;99.90
15556;DHT22;7879;48.660;9.116;2023-12-07T15:54:26;2.60;99.90
15556;DHT22;7879;48.660;9.116;2023-12-07T15:57:05;2.60;99.90
15556;DHT22;7879;48.660;9.116;2023-12-07T15:59:33;2.50;99.90
15556;DHT22;7879;48.660;9.116;2023-12-07T16:02:00;2.50;99.90
15556;DHT22;7879;48.660;9.116;2023-12-07T16:04:33;2.50;99.90
15556;DHT22;7879;48.660;9.116;2023-12-07T16:07:05;2.40;99.90
15556;DHT22;7879;48.660;9.116;2023-12-07T16:09:36;2.30;99.90
15556;DHT22;7879;48.660;9.116;2023-12-07T16:12:04;2.30;99.90
15556;DHT22;7879;48.660;9.116;2023-12-07T16:14:33;2.30;99.90
15556;DHT22;7879;48.660;9.116;2023-12-07T16:17:01;2.30;99.90
15556;DHT22;7879;48.660;9.116;2023-12-07T16:19:28;2.10;99.90
15556;DHT22;7879;48.660;9.116;2023-12-07T16:21:59;2.00;99.90